sensor_id;sensor_type;location;lat;lon;timestamp;P1;durP1;ratioP1;P2;durP2;ratioP2
64816;SDS011;53289;45.602;11.904;2022-12-07T00:01:10;42.97;;;22.00;;
64816;SDS011;53289;45.602;11.904;2022-12-07T00:03:44;41.20;;;21.60;;
64816;SDS011;53289;45.602;11.904;2022-12-07T00:06:12;45.83;;;22.20;;
64816;SDS011;53289;45.602;11.904;2022-12-07T00:08:39;41.90;;;21.27;;
64816;SDS011;53289;45.602;11.904;2022-12-07T00:11:09;38.28;;;20.80;;
64816;SDS011;53289;45.602;11.904;2022-12-07T00:13:38;38.75;;;20.75;;
64816;SDS011;53289;45.602;11.904;2022-12-07T00:16:17;38.08;;;20.85;;
64816;SDS011;53289;45.602;11.904;2022-12-07T00:18:44;38.95;;;20.38;;
64816;SDS011;53289;45.602;11.904;2022-12-07T00:21:11;33.38;;;18.50;;
64816;SDS011;53289;45.602;11.904;2022-12-07T00:23:45;34.92;;;18.52;;
64816;SDS011;53289;45.602;11.904;2022-12-07T00:26:16;27.38;;;17.42;;
64816;SDS011;53289;45.602;11.904;2022-12-07T00:28:50;34.80;;;18.58;;
64816;SDS011;53289;45.602;11.904;2022-12-07T00:31:21;29.35;;;17.80;;
64816;SDS011;53289;45.602;11.904;2022-12-07T00:33:49;35.00;;;18.58;;
64816;SDS011;53289;45.602;11.904;2022-12-07T00:36:17;43.42;;;18.85;;
64816;SDS011;53289;45.602;11.904;2022-12-07T00:38:45;37.88;;;17.75;;
64816;SDS011;53289;45.602;11.904;2022-12-07T00:41:15;35.53;;;18.42;;
64816;SDS011;53289;45.602;11.904;2022-12-07T00:43:46;39.47;;;20.17;;
64816;SDS011;53289;45.602;11.904;2022-12-07T00:46:13;30.20;;;16.52;;
64816;SDS011;53289;45.602;11.904;2022-12-07T00:48:39;31.20;;;16.25;;
64816;SDS011;53289;45.602;11.904;2022-12-07T00:51:06;33.22;;;18.55;;
64816;SDS011;53289;45.602;11.904;2022-12-07T00:53:36;34.95;;;18.55;;
64816;SDS011;53289;45.602;11.904;2022-12-07T00:56:09;33.70;;;17.42;;
64816;SDS011;53289;45.602;11.904;2022-12-07T00:59:01;40.00;;;18.98;;
64816;SDS011;53289;45.602;11.904;2022-12-07T01:01:29;38.90;;;18.75;;
64816;SDS011;53289;45.602;11.904;2022-12-07T01:03:57;35.88;;;18.30;;
64816;SDS011;53289;45.602;11.904;2022-12-07T01:06:23;28.52;;;16.58;;
64816;SDS011;53289;45.602;11.904;2022-12-07T01:08:50;31.55;;;17.27;;
64816;SDS011;53289;45.602;11.904;2022-12-07T01:11:17;29.90;;;17.10;;
64816;SDS011;53289;45.602;11.904;2022-12-07T01:13:45;37.90;;;18.20;;
64816;SDS011;53289;45.602;11.904;2022-12-07T01:16:12;35.88;;;18.02;;
64816;SDS011;53289;45.602;11.904;2022-12-07T01:18:39;35.10;;;17.05;;
64816;SDS011;53289;45.602;11.904;2022-12-07T01:21:13;31.58;;;16.83;;
64816;SDS011;53289;45.602;11.904;2022-12-07T01:23:40;33.83;;;18.45;;
64816;SDS011;53289;45.602;11.904;2022-12-07T01:26:07;29.63;;;18.10;;
64816;SDS011;53289;45.602;11.904;2022-12-07T01:28:38;31.88;;;19.02;;
64816;SDS011;53289;45.602;11.904;2022-12-07T01:31:08;28.00;;;16.20;;
64816;SDS011;53289;45.602;11.904;2022-12-07T01:33:40;30.85;;;18.25;;
64816;SDS011;53289;45.602;11.904;2022-12-07T01:36:08;26.17;;;16.77;;
64816;SDS011;53289;45.602;11.904;2022-12-07T01:38:43;32.13;;;17.30;;
64816;SDS011;53289;45.602;11.904;2022-12-07T01:41:11;32.28;;;18.58;;
64816;SDS011;53289;45.602;11.904;2022-12-07T01:44:06;29.92;;;17.08;;
64816;SDS011;53289;45.602;11.904;2022-12-07T01:46:37;33.25;;;19.10;;
64816;SDS011;53289;45.602;11.904;2022-12-07T01:49:04;29.73;;;17.88;;
64816;SDS011;53289;45.602;11.904;2022-12-07T01:51:34;27.67;;;17.23;;
64816;SDS011;53289;45.602;11.904;2022-12-07T01:54:02;30.23;;;17.73;;
64816;SDS011;53289;45.602;11.904;2022-12-07T01:56:28;31.15;;;18.58;;
64816;SDS011;53289;45.602;11.904;2022-12-07T01:58:54;31.05;;;16.85;;
64816;SDS011;53289;45.602;11.904;2022-12-07T02:01:22;32.92;;;17.90;;
64816;SDS011;53289;45.602;11.904;2022-12-07T02:03:48;33.97;;;18.83;;
64816;SDS011;53289;45.602;11.904;2022-12-07T02:06:16;32.05;;;18.42;;
64816;SDS011;53289;45.602;11.904;2022-12-07T02:08:45;32.97;;;18.20;;
64816;SDS011;53289;45.602;11.904;2022-12-07T02:11:12;29.50;;;17.20;;
64816;SDS011;53289;45.602;11.904;2022-12-07T02:13:39;31.63;;;18.40;;
64816;SDS011;53289;45.602;11.904;2022-12-07T02:19:12;28.95;;;15.27;;
64816;SDS011;53289;45.602;11.904;2022-12-07T02:25:03;23.83;;;14.93;;
64816;SDS011;53289;45.602;11.904;2022-12-07T02:30:21;29.90;;;17.65;;
64816;SDS011;53289;45.602;11.904;2022-12-07T02:33:14;27.63;;;17.38;;
64816;SDS011;53289;45.602;11.904;2022-12-07T02:36:01;25.15;;;16.02;;
64816;SDS011;53289;45.602;11.904;2022-12-07T02:38:55;24.17;;;15.32;;
64816;SDS011;53289;45.602;11.904;2022-12-07T02:41:37;26.83;;;15.18;;
64816;SDS011;53289;45.602;11.904;2022-12-07T02:44:09;25.88;;;15.80;;
64816;SDS011;53289;45.602;11.904;2022-12-07T02:46:48;23.27;;;14.15;;
64816;SDS011;53289;45.602;11.904;2022-12-07T02:49:24;23.98;;;15.35;;
64816;SDS011;53289;45.602;11.904;2022-12-07T02:51:52;23.33;;;14.75;;
64816;SDS011;53289;45.602;11.904;2022-12-07T02:54:20;24.95;;;15.20;;
64816;SDS011;53289;45.602;11.904;2022-12-07T02:56:52;26.02;;;14.60;;
64816;SDS011;53289;45.602;11.904;2022-12-07T02:59:43;25.48;;;14.40;;
64816;SDS011;53289;45.602;11.904;2022-12-07T03:15:34;24.67;;;13.93;;
64816;SDS011;53289;45.602;11.904;2022-12-07T03:18:24;23.15;;;13.95;;
64816;SDS011;53289;45.602;11.904;2022-12-07T03:20:53;25.42;;;13.60;;
64816;SDS011;53289;45.602;11.904;2022-12-07T03:23:23;25.25;;;14.30;;
64816;SDS011;53289;45.602;11.904;2022-12-07T03:25:53;29.00;;;15.73;;
64816;SDS011;53289;45.602;11.904;2022-12-07T03:28:24;32.85;;;16.83;;
64816;SDS011;53289;45.602;11.904;2022-12-07T03:41:49;24.33;;;14.05;;
64816;SDS011;53289;45.602;11.904;2022-12-07T03:44:16;25.77;;;14.95;;
64816;SDS011;53289;45.602;11.904;2022-12-07T03:49:27;27.35;;;15.23;;
64816;SDS011;53289;45.602;11.904;2022-12-07T03:54:29;29.73;;;15.95;;
64816;SDS011;53289;45.602;11.904;2022-12-07T03:56:59;27.27;;;15.40;;
64816;SDS011;53289;45.602;11.904;2022-12-07T03:59:28;23.95;;;15.05;;
64816;SDS011;53289;45.602;11.904;2022-12-07T04:01:55;26.38;;;15.07;;
64816;SDS011;53289;45.602;11.904;2022-12-07T04:04:26;28.13;;;16.23;;
64816;SDS011;53289;45.602;11.904;2022-12-07T04:06:53;29.92;;;15.50;;
64816;SDS011;53289;45.602;11.904;2022-12-07T04:09:19;27.98;;;15.63;;
64816;SDS011;53289;45.602;11.904;2022-12-07T04:11:45;28.40;;;16.25;;
64816;SDS011;53289;45.602;11.904;2022-12-07T04:14:11;27.60;;;15.48;;
64816;SDS011;53289;45.602;11.904;2022-12-07T04:16:45;27.75;;;15.65;;
64816;SDS011;53289;45.602;11.904;2022-12-07T04:19:13;28.48;;;14.98;;
64816;SDS011;53289;45.602;11.904;2022-12-07T04:21:40;28.95;;;15.73;;
64816;SDS011;53289;45.602;11.904;2022-12-07T04:24:06;28.48;;;16.40;;
64816;SDS011;53289;45.602;11.904;2022-12-07T04:26:32;29.27;;;16.55;;
64816;SDS011;53289;45.602;11.904;2022-12-07T04:28:58;19.08;;;11.95;;
64816;SDS011;53289;45.602;11.904;2022-12-07T04:31:24;22.85;;;13.02;;
64816;SDS011;53289;45.602;11.904;2022-12-07T04:33:50;23.92;;;13.85;;
64816;SDS011;53289;45.602;11.904;2022-12-07T04:36:16;28.95;;;16.38;;
64816;SDS011;53289;45.602;11.904;2022-12-07T04:38:45;24.55;;;14.95;;
64816;SDS011;53289;45.602;11.904;2022-12-07T04:41:11;25.35;;;14.73;;
64816;SDS011;53289;45.602;11.904;2022-12-07T04:43:37;26.13;;;16.02;;
64816;SDS011;53289;45.602;11.904;2022-12-07T04:46:03;29.42;;;16.23;;
64816;SDS011;53289;45.602;11.904;2022-12-07T04:48:29;28.38;;;15.48;;
64816;SDS011;53289;45.602;11.904;2022-12-07T04:50:55;26.85;;;15.25;;
64816;SDS011;53289;45.602;11.904;2022-12-07T04:53:21;26.48;;;15.23;;
64816;SDS011;53289;45.602;11.904;2022-12-07T04:55:47;25.67;;;15.38;;
64816;SDS011;53289;45.602;11.904;2022-12-07T04:58:14;23.85;;;13.02;;
64816;SDS011;53289;45.602;11.904;2022-12-07T05:00:40;23.10;;;13.82;;
64816;SDS011;53289;45.602;11.904;2022-12-07T05:03:06;23.80;;;14.80;;
64816;SDS011;53289;45.602;11.904;2022-12-07T05:05:32;24.85;;;14.00;;
64816;SDS011;53289;45.602;11.904;2022-12-07T05:07:58;21.63;;;13.95;;
64816;SDS011;53289;45.602;11.904;2022-12-07T05:10:24;29.77;;;16.35;;
64816;SDS011;53289;45.602;11.904;2022-12-07T05:12:50;24.40;;;14.48;;
64816;SDS011;53289;45.602;11.904;2022-12-07T05:15:16;23.67;;;14.60;;
64816;SDS011;53289;45.602;11.904;2022-12-07T05:17:43;26.50;;;15.95;;
64816;SDS011;53289;45.602;11.904;2022-12-07T05:20:09;28.98;;;16.58;;
64816;SDS011;53289;45.602;11.904;2022-12-07T05:22:35;25.50;;;14.60;;
64816;SDS011;53289;45.602;11.904;2022-12-07T05:25:01;26.45;;;15.32;;
64816;SDS011;53289;45.602;11.904;2022-12-07T05:27:27;25.73;;;15.27;;
64816;SDS011;53289;45.602;11.904;2022-12-07T05:29:53;24.40;;;14.95;;
64816;SDS011;53289;45.602;11.904;2022-12-07T05:32:19;27.33;;;14.40;;
64816;SDS011;53289;45.602;11.904;2022-12-07T05:34:45;25.85;;;14.38;;
64816;SDS011;53289;45.602;11.904;2022-12-07T05:37:11;27.23;;;15.68;;
64816;SDS011;53289;45.602;11.904;2022-12-07T05:39:37;25.13;;;15.43;;
64816;SDS011;53289;45.602;11.904;2022-12-07T05:42:06;26.27;;;15.60;;
64816;SDS011;53289;45.602;11.904;2022-12-07T05:44:41;29.52;;;15.90;;
64816;SDS011;53289;45.602;11.904;2022-12-07T05:47:09;28.83;;;15.55;;
64816;SDS011;53289;45.602;11.904;2022-12-07T05:49:36;28.30;;;15.93;;
64816;SDS011;53289;45.602;11.904;2022-12-07T05:52:02;25.60;;;16.02;;
64816;SDS011;53289;45.602;11.904;2022-12-07T05:54:29;30.02;;;15.80;;
64816;SDS011;53289;45.602;11.904;2022-12-07T05:56:55;33.30;;;16.67;;
64816;SDS011;53289;45.602;11.904;2022-12-07T05:59:21;32.72;;;16.77;;
64816;SDS011;53289;45.602;11.904;2022-12-07T06:02:00;31.20;;;16.42;;
64816;SDS011;53289;45.602;11.904;2022-12-07T06:04:29;31.02;;;17.15;;
64816;SDS011;53289;45.602;11.904;2022-12-07T06:06:57;30.40;;;16.80;;
64816;SDS011;53289;45.602;11.904;2022-12-07T06:09:24;26.90;;;16.17;;
64816;SDS011;53289;45.602;11.904;2022-12-07T06:11:51;29.30;;;15.35;;
64816;SDS011;53289;45.602;11.904;2022-12-07T06:14:36;29.35;;;15.80;;
64816;SDS011;53289;45.602;11.904;2022-12-07T06:17:02;30.13;;;17.42;;
64816;SDS011;53289;45.602;11.904;2022-12-07T06:19:29;33.67;;;17.15;;
64816;SDS011;53289;45.602;11.904;2022-12-07T06:21:55;34.17;;;18.80;;
64816;SDS011;53289;45.602;11.904;2022-12-07T06:24:22;38.83;;;19.75;;
64816;SDS011;53289;45.602;11.904;2022-12-07T06:26:48;29.10;;;16.02;;
64816;SDS011;53289;45.602;11.904;2022-12-07T06:29:15;31.25;;;17.48;;
64816;SDS011;53289;45.602;11.904;2022-12-07T06:31:41;29.83;;;17.63;;
64816;SDS011;53289;45.602;11.904;2022-12-07T06:34:09;37.83;;;18.88;;
64816;SDS011;53289;45.602;11.904;2022-12-07T06:36:37;33.58;;;19.08;;
64816;SDS011;53289;45.602;11.904;2022-12-07T06:39:03;38.65;;;20.35;;
64816;SDS011;53289;45.602;11.904;2022-12-07T06:41:30;27.20;;;17.27;;
64816;SDS011;53289;45.602;11.904;2022-12-07T06:43:56;33.00;;;17.27;;
64816;SDS011;53289;45.602;11.904;2022-12-07T06:46:22;26.98;;;15.57;;
64816;SDS011;53289;45.602;11.904;2022-12-07T06:48:49;32.42;;;18.15;;
64816;SDS011;53289;45.602;11.904;2022-12-07T06:51:15;31.42;;;16.85;;
64816;SDS011;53289;45.602;11.904;2022-12-07T06:53:41;18.40;;;11.88;;
64816;SDS011;53289;45.602;11.904;2022-12-07T06:56:07;26.42;;;14.25;;
64816;SDS011;53289;45.602;11.904;2022-12-07T06:58:33;30.85;;;16.95;;
64816;SDS011;53289;45.602;11.904;2022-12-07T07:00:59;25.27;;;14.50;;
64816;SDS011;53289;45.602;11.904;2022-12-07T07:03:25;26.98;;;15.27;;
64816;SDS011;53289;45.602;11.904;2022-12-07T07:05:51;31.90;;;17.83;;
64816;SDS011;53289;45.602;11.904;2022-12-07T07:08:17;36.80;;;19.58;;
64816;SDS011;53289;45.602;11.904;2022-12-07T07:10:43;27.05;;;15.30;;
64816;SDS011;53289;45.602;11.904;2022-12-07T07:13:09;32.38;;;16.05;;
64816;SDS011;53289;45.602;11.904;2022-12-07T07:15:37;20.52;;;12.50;;
64816;SDS011;53289;45.602;11.904;2022-12-07T07:18:04;22.80;;;13.35;;
64816;SDS011;53289;45.602;11.904;2022-12-07T07:20:30;36.30;;;18.58;;
64816;SDS011;53289;45.602;11.904;2022-12-07T07:22:56;29.75;;;16.50;;
64816;SDS011;53289;45.602;11.904;2022-12-07T07:25:22;27.02;;;15.45;;
64816;SDS011;53289;45.602;11.904;2022-12-07T07:27:48;41.78;;;20.85;;
64816;SDS011;53289;45.602;11.904;2022-12-07T07:30:14;30.92;;;17.63;;
64816;SDS011;53289;45.602;11.904;2022-12-07T07:32:40;27.42;;;16.13;;
64816;SDS011;53289;45.602;11.904;2022-12-07T07:35:06;39.92;;;20.35;;
64816;SDS011;53289;45.602;11.904;2022-12-07T07:37:32;32.60;;;17.13;;
64816;SDS011;53289;45.602;11.904;2022-12-07T07:39:58;32.45;;;17.90;;
64816;SDS011;53289;45.602;11.904;2022-12-07T07:42:24;43.30;;;23.05;;
64816;SDS011;53289;45.602;11.904;2022-12-07T07:44:49;32.88;;;18.88;;
64816;SDS011;53289;45.602;11.904;2022-12-07T07:47:15;32.75;;;17.92;;
64816;SDS011;53289;45.602;11.904;2022-12-07T07:49:41;33.85;;;19.40;;
64816;SDS011;53289;45.602;11.904;2022-12-07T07:52:07;32.20;;;18.92;;
64816;SDS011;53289;45.602;11.904;2022-12-07T07:54:33;37.15;;;20.25;;
64816;SDS011;53289;45.602;11.904;2022-12-07T07:56:59;33.30;;;18.35;;
64816;SDS011;53289;45.602;11.904;2022-12-07T07:59:25;36.75;;;19.98;;
64816;SDS011;53289;45.602;11.904;2022-12-07T08:01:51;37.35;;;21.35;;
64816;SDS011;53289;45.602;11.904;2022-12-07T08:04:17;35.30;;;21.80;;
64816;SDS011;53289;45.602;11.904;2022-12-07T08:06:43;41.10;;;23.90;;
64816;SDS011;53289;45.602;11.904;2022-12-07T08:09:09;37.90;;;22.65;;
64816;SDS011;53289;45.602;11.904;2022-12-07T08:11:36;37.45;;;22.50;;
64816;SDS011;53289;45.602;11.904;2022-12-07T08:14:02;40.40;;;23.77;;
64816;SDS011;53289;45.602;11.904;2022-12-07T08:16:28;38.53;;;20.98;;
64816;SDS011;53289;45.602;11.904;2022-12-07T08:18:54;44.40;;;25.08;;
64816;SDS011;53289;45.602;11.904;2022-12-07T08:21:21;43.35;;;24.15;;
64816;SDS011;53289;45.602;11.904;2022-12-07T08:23:47;41.63;;;23.10;;
64816;SDS011;53289;45.602;11.904;2022-12-07T08:26:14;43.28;;;24.35;;
64816;SDS011;53289;45.602;11.904;2022-12-07T08:28:41;45.78;;;25.35;;
64816;SDS011;53289;45.602;11.904;2022-12-07T08:31:11;41.83;;;23.50;;
64816;SDS011;53289;45.602;11.904;2022-12-07T08:33:40;46.50;;;23.52;;
64816;SDS011;53289;45.602;11.904;2022-12-07T08:36:08;46.80;;;26.58;;
64816;SDS011;53289;45.602;11.904;2022-12-07T08:38:35;44.95;;;25.67;;
64816;SDS011;53289;45.602;11.904;2022-12-07T08:41:02;46.63;;;26.33;;
64816;SDS011;53289;45.602;11.904;2022-12-07T08:43:28;52.10;;;28.98;;
64816;SDS011;53289;45.602;11.904;2022-12-07T08:48:31;44.80;;;25.20;;
64816;SDS011;53289;45.602;11.904;2022-12-07T08:50:58;39.92;;;24.30;;
64816;SDS011;53289;45.602;11.904;2022-12-07T08:53:24;39.67;;;23.92;;
64816;SDS011;53289;45.602;11.904;2022-12-07T08:55:50;35.60;;;21.85;;
64816;SDS011;53289;45.602;11.904;2022-12-07T08:58:17;33.03;;;21.15;;
64816;SDS011;53289;45.602;11.904;2022-12-07T09:00:43;30.52;;;19.42;;
64816;SDS011;53289;45.602;11.904;2022-12-07T09:03:09;29.85;;;19.10;;
64816;SDS011;53289;45.602;11.904;2022-12-07T09:05:35;33.30;;;20.92;;
64816;SDS011;53289;45.602;11.904;2022-12-07T09:08:01;34.88;;;20.58;;
64816;SDS011;53289;45.602;11.904;2022-12-07T09:10:28;34.40;;;20.23;;
64816;SDS011;53289;45.602;11.904;2022-12-07T09:12:55;34.13;;;20.45;;
64816;SDS011;53289;45.602;11.904;2022-12-07T09:15:21;31.40;;;19.30;;
64816;SDS011;53289;45.602;11.904;2022-12-07T09:17:47;31.98;;;18.88;;
64816;SDS011;53289;45.602;11.904;2022-12-07T09:20:13;28.30;;;17.50;;
64816;SDS011;53289;45.602;11.904;2022-12-07T09:22:39;26.80;;;16.35;;
64816;SDS011;53289;45.602;11.904;2022-12-07T09:25:05;26.00;;;16.38;;
64816;SDS011;53289;45.602;11.904;2022-12-07T09:27:31;27.23;;;17.02;;
64816;SDS011;53289;45.602;11.904;2022-12-07T09:29:57;28.40;;;17.05;;
64816;SDS011;53289;45.602;11.904;2022-12-07T09:32:23;25.23;;;17.20;;
64816;SDS011;53289;45.602;11.904;2022-12-07T09:34:49;26.92;;;16.67;;
64816;SDS011;53289;45.602;11.904;2022-12-07T09:37:15;28.05;;;16.15;;
64816;SDS011;53289;45.602;11.904;2022-12-07T09:39:41;28.08;;;16.60;;
64816;SDS011;53289;45.602;11.904;2022-12-07T09:42:08;21.27;;;13.73;;
64816;SDS011;53289;45.602;11.904;2022-12-07T09:44:36;22.45;;;13.90;;
64816;SDS011;53289;45.602;11.904;2022-12-07T09:47:05;21.10;;;13.50;;
64816;SDS011;53289;45.602;11.904;2022-12-07T09:49:33;22.77;;;13.43;;
64816;SDS011;53289;45.602;11.904;2022-12-07T09:54:37;21.02;;;13.77;;
64816;SDS011;53289;45.602;11.904;2022-12-07T09:57:10;20.27;;;12.65;;
64816;SDS011;53289;45.602;11.904;2022-12-07T09:59:38;22.50;;;13.75;;
64816;SDS011;53289;45.602;11.904;2022-12-07T10:02:32;24.38;;;12.52;;
64816;SDS011;53289;45.602;11.904;2022-12-07T10:05:10;21.70;;;12.45;;
64816;SDS011;53289;45.602;11.904;2022-12-07T10:07:48;23.40;;;13.05;;
64816;SDS011;53289;45.602;11.904;2022-12-07T10:10:17;20.50;;;13.25;;
64816;SDS011;53289;45.602;11.904;2022-12-07T10:12:54;19.55;;;13.48;;
64816;SDS011;53289;45.602;11.904;2022-12-07T10:18:36;21.25;;;13.90;;
64816;SDS011;53289;45.602;11.904;2022-12-07T10:21:05;18.45;;;12.43;;
64816;SDS011;53289;45.602;11.904;2022-12-07T10:23:43;16.80;;;12.00;;
64816;SDS011;53289;45.602;11.904;2022-12-07T10:29:12;19.02;;;12.65;;
64816;SDS011;53289;45.602;11.904;2022-12-07T10:31:40;18.40;;;12.75;;
64816;SDS011;53289;45.602;11.904;2022-12-07T10:36:54;20.15;;;12.32;;
64816;SDS011;53289;45.602;11.904;2022-12-07T10:42:08;18.63;;;12.40;;
64816;SDS011;53289;45.602;11.904;2022-12-07T10:44:43;17.30;;;11.63;;
64816;SDS011;53289;45.602;11.904;2022-12-07T10:52:50;15.18;;;11.23;;
64816;SDS011;53289;45.602;11.904;2022-12-07T11:07:25;16.52;;;9.68;;
64816;SDS011;53289;45.602;11.904;2022-12-07T11:21:48;14.27;;;9.23;;
64816;SDS011;53289;45.602;11.904;2022-12-07T11:24:40;14.77;;;9.23;;
64816;SDS011;53289;45.602;11.904;2022-12-07T11:35:11;12.35;;;7.57;;
64816;SDS011;53289;45.602;11.904;2022-12-07T11:37:49;9.23;;;6.25;;
64816;SDS011;53289;45.602;11.904;2022-12-07T11:40:27;9.30;;;5.72;;
64816;SDS011;53289;45.602;11.904;2022-12-07T11:43:04;9.07;;;5.68;;
64816;SDS011;53289;45.602;11.904;2022-12-07T11:46:03;12.07;;;6.45;;
64816;SDS011;53289;45.602;11.904;2022-12-07T11:51:12;11.60;;;6.55;;
64816;SDS011;53289;45.602;11.904;2022-12-07T11:53:39;9.25;;;5.85;;
64816;SDS011;53289;45.602;11.904;2022-12-07T11:56:13;8.13;;;5.38;;
64816;SDS011;53289;45.602;11.904;2022-12-07T12:06:40;4.70;;;2.75;;
64816;SDS011;53289;45.602;11.904;2022-12-07T12:17:49;5.20;;;3.10;;
64816;SDS011;53289;45.602;11.904;2022-12-07T12:22:46;4.72;;;3.47;;
64816;SDS011;53289;45.602;11.904;2022-12-07T12:25:23;5.63;;;3.60;;
64816;SDS011;53289;45.602;11.904;2022-12-07T12:28:29;4.25;;;3.30;;
64816;SDS011;53289;45.602;11.904;2022-12-07T12:31:17;7.03;;;4.40;;
64816;SDS011;53289;45.602;11.904;2022-12-07T12:33:57;6.50;;;4.30;;
64816;SDS011;53289;45.602;11.904;2022-12-07T12:44:02;5.72;;;3.67;;
64816;SDS011;53289;45.602;11.904;2022-12-07T12:54:26;6.22;;;4.45;;
64816;SDS011;53289;45.602;11.904;2022-12-07T13:02:22;5.60;;;4.03;;
64816;SDS011;53289;45.602;11.904;2022-12-07T13:04:53;5.10;;;3.67;;
64816;SDS011;53289;45.602;11.904;2022-12-07T13:10:21;6.95;;;4.70;;
64816;SDS011;53289;45.602;11.904;2022-12-07T13:15:31;6.72;;;4.38;;
64816;SDS011;53289;45.602;11.904;2022-12-07T13:20:40;8.15;;;5.50;;
64816;SDS011;53289;45.602;11.904;2022-12-07T13:23:18;7.72;;;4.75;;
64816;SDS011;53289;45.602;11.904;2022-12-07T13:26:14;7.20;;;4.65;;
64816;SDS011;53289;45.602;11.904;2022-12-07T13:31:36;8.07;;;5.30;;
64816;SDS011;53289;45.602;11.904;2022-12-07T13:34:03;7.05;;;4.95;;
64816;SDS011;53289;45.602;11.904;2022-12-07T13:36:49;7.40;;;5.00;;
64816;SDS011;53289;45.602;11.904;2022-12-07T13:39:18;8.05;;;5.00;;
64816;SDS011;53289;45.602;11.904;2022-12-07T13:41:54;5.63;;;4.03;;
64816;SDS011;53289;45.602;11.904;2022-12-07T13:44:26;5.53;;;4.10;;
64816;SDS011;53289;45.602;11.904;2022-12-07T13:52:13;6.90;;;4.40;;
64816;SDS011;53289;45.602;11.904;2022-12-07T13:54:59;7.00;;;4.40;;
64816;SDS011;53289;45.602;11.904;2022-12-07T13:57:28;15.73;;;5.15;;
64816;SDS011;53289;45.602;11.904;2022-12-07T14:00:00;8.63;;;5.70;;
64816;SDS011;53289;45.602;11.904;2022-12-07T14:02:32;9.13;;;5.20;;
64816;SDS011;53289;45.602;11.904;2022-12-07T14:07:56;11.80;;;4.47;;
64816;SDS011;53289;45.602;11.904;2022-12-07T14:10:32;7.68;;;4.90;;
64816;SDS011;53289;45.602;11.904;2022-12-07T14:13:21;8.55;;;5.90;;
64816;SDS011;53289;45.602;11.904;2022-12-07T14:16:00;9.60;;;6.50;;
64816;SDS011;53289;45.602;11.904;2022-12-07T14:18:38;9.10;;;6.03;;
64816;SDS011;53289;45.602;11.904;2022-12-07T14:21:15;8.07;;;4.85;;
64816;SDS011;53289;45.602;11.904;2022-12-07T14:23:44;9.68;;;5.93;;
64816;SDS011;53289;45.602;11.904;2022-12-07T14:26:11;9.48;;;6.25;;
64816;SDS011;53289;45.602;11.904;2022-12-07T14:28:39;8.63;;;5.20;;
64816;SDS011;53289;45.602;11.904;2022-12-07T14:31:16;11.73;;;5.50;;
64816;SDS011;53289;45.602;11.904;2022-12-07T14:33:45;9.63;;;5.63;;
64816;SDS011;53289;45.602;11.904;2022-12-07T14:36:11;8.57;;;5.68;;
64816;SDS011;53289;45.602;11.904;2022-12-07T14:38:38;7.68;;;5.00;;
64816;SDS011;53289;45.602;11.904;2022-12-07T14:41:04;6.88;;;5.20;;
64816;SDS011;53289;45.602;11.904;2022-12-07T14:44:00;10.38;;;6.18;;
64816;SDS011;53289;45.602;11.904;2022-12-07T14:46:26;14.43;;;5.40;;
64816;SDS011;53289;45.602;11.904;2022-12-07T14:48:51;10.35;;;5.72;;
64816;SDS011;53289;45.602;11.904;2022-12-07T14:51:17;8.85;;;5.50;;
64816;SDS011;53289;45.602;11.904;2022-12-07T14:53:47;10.98;;;5.47;;
64816;SDS011;53289;45.602;11.904;2022-12-07T14:56:15;23.40;;;6.93;;
64816;SDS011;53289;45.602;11.904;2022-12-07T14:58:41;18.58;;;6.50;;
64816;SDS011;53289;45.602;11.904;2022-12-07T15:01:07;13.60;;;7.32;;
64816;SDS011;53289;45.602;11.904;2022-12-07T15:03:32;13.55;;;6.82;;
64816;SDS011;53289;45.602;11.904;2022-12-07T15:06:00;16.17;;;6.45;;
64816;SDS011;53289;45.602;11.904;2022-12-07T15:08:26;12.82;;;5.85;;
64816;SDS011;53289;45.602;11.904;2022-12-07T15:10:52;11.95;;;5.65;;
64816;SDS011;53289;45.602;11.904;2022-12-07T15:13:18;14.90;;;6.95;;
64816;SDS011;53289;45.602;11.904;2022-12-07T15:16:02;16.77;;;6.82;;
64816;SDS011;53289;45.602;11.904;2022-12-07T15:18:28;18.70;;;8.30;;
64816;SDS011;53289;45.602;11.904;2022-12-07T15:20:54;16.98;;;8.40;;
64816;SDS011;53289;45.602;11.904;2022-12-07T15:23:20;13.18;;;6.75;;
64816;SDS011;53289;45.602;11.904;2022-12-07T15:25:47;13.40;;;6.88;;
64816;SDS011;53289;45.602;11.904;2022-12-07T15:28:14;17.52;;;7.90;;
64816;SDS011;53289;45.602;11.904;2022-12-07T15:30:40;16.25;;;7.70;;
64816;SDS011;53289;45.602;11.904;2022-12-07T15:33:10;13.88;;;7.10;;
64816;SDS011;53289;45.602;11.904;2022-12-07T15:35:41;12.38;;;6.53;;
64816;SDS011;53289;45.602;11.904;2022-12-07T15:38:08;17.55;;;8.30;;
64816;SDS011;53289;45.602;11.904;2022-12-07T15:40:34;13.93;;;6.63;;
64816;SDS011;53289;45.602;11.904;2022-12-07T15:43:00;11.93;;;6.28;;
64816;SDS011;53289;45.602;11.904;2022-12-07T15:45:27;17.73;;;7.95;;
64816;SDS011;53289;45.602;11.904;2022-12-07T15:47:53;17.70;;;8.02;;
64816;SDS011;53289;45.602;11.904;2022-12-07T15:50:20;22.27;;;8.60;;
64816;SDS011;53289;45.602;11.904;2022-12-07T15:52:47;12.95;;;7.20;;
64816;SDS011;53289;45.602;11.904;2022-12-07T15:55:13;13.85;;;8.10;;
64816;SDS011;53289;45.602;11.904;2022-12-07T15:57:39;15.75;;;8.60;;
64816;SDS011;53289;45.602;11.904;2022-12-07T16:00:05;17.70;;;10.43;;
64816;SDS011;53289;45.602;11.904;2022-12-07T16:02:34;18.42;;;9.50;;
64816;SDS011;53289;45.602;11.904;2022-12-07T16:05:01;17.52;;;9.82;;
64816;SDS011;53289;45.602;11.904;2022-12-07T16:07:27;16.98;;;10.13;;
64816;SDS011;53289;45.602;11.904;2022-12-07T16:09:53;18.55;;;10.73;;
64816;SDS011;53289;45.602;11.904;2022-12-07T16:12:19;26.08;;;13.63;;
64816;SDS011;53289;45.602;11.904;2022-12-07T16:14:44;29.95;;;14.80;;
64816;SDS011;53289;45.602;11.904;2022-12-07T16:17:10;29.45;;;15.07;;
64816;SDS011;53289;45.602;11.904;2022-12-07T16:19:36;29.25;;;14.85;;
64816;SDS011;53289;45.602;11.904;2022-12-07T16:22:03;30.08;;;17.48;;
64816;SDS011;53289;45.602;11.904;2022-12-07T16:24:29;33.80;;;18.17;;
64816;SDS011;53289;45.602;11.904;2022-12-07T16:26:56;30.58;;;17.25;;
64816;SDS011;53289;45.602;11.904;2022-12-07T16:29:21;27.83;;;16.00;;
64816;SDS011;53289;45.602;11.904;2022-12-07T16:31:48;33.03;;;17.60;;
64816;SDS011;53289;45.602;11.904;2022-12-07T16:34:15;23.67;;;14.13;;
64816;SDS011;53289;45.602;11.904;2022-12-07T16:36:41;27.35;;;15.57;;
64816;SDS011;53289;45.602;11.904;2022-12-07T16:39:08;28.00;;;18.00;;
64816;SDS011;53289;45.602;11.904;2022-12-07T16:41:34;25.75;;;14.40;;
64816;SDS011;53289;45.602;11.904;2022-12-07T16:44:03;35.30;;;18.88;;
64816;SDS011;53289;45.602;11.904;2022-12-07T16:46:31;34.17;;;18.60;;
64816;SDS011;53289;45.602;11.904;2022-12-07T16:48:58;26.73;;;15.70;;
64816;SDS011;53289;45.602;11.904;2022-12-07T16:51:24;26.45;;;15.43;;
64816;SDS011;53289;45.602;11.904;2022-12-07T16:53:50;35.22;;;19.67;;
64816;SDS011;53289;45.602;11.904;2022-12-07T16:56:18;41.30;;;21.38;;
64816;SDS011;53289;45.602;11.904;2022-12-07T16:58:45;50.67;;;24.73;;
64816;SDS011;53289;45.602;11.904;2022-12-07T17:01:15;33.70;;;19.42;;